createdAt,value
2022-10-17T00:00:22.951Z,99.61
2022-10-17T00:02:50.657Z,99.07
2022-10-17T00:05:18.361Z,99.11
2022-10-17T00:07:46.026Z,99.34
2022-10-17T00:10:15.073Z,99.12
2022-10-17T00:12:42.757Z,99.38
2022-10-17T00:15:12.358Z,99.26
2022-10-17T00:17:39.996Z,99.47
2022-10-17T00:20:08.835Z,99.39
2022-10-17T00:25:09.605Z,99.70
2022-10-17T00:27:39.404Z,99.69
2022-10-17T00:30:09.266Z,99.72
2022-10-17T00:32:37.019Z,99.64
2022-10-17T00:35:05.249Z,99.94
2022-10-17T00:37:33.354Z,99.92
2022-10-17T00:40:01.063Z,100.00
2022-10-17T00:42:29.016Z,100.00
2022-10-17T00:45:18.911Z,100.00
2022-10-17T00:47:49.662Z,100.00
2022-10-17T00:50:17.612Z,100.00
2022-10-17T00:52:46.988Z,100.00
2022-10-17T00:55:17.646Z,100.00
2022-10-17T00:57:47.022Z,100.00
2022-10-17T01:00:17.306Z,100.00
2022-10-17T01:02:45.464Z,100.00
2022-10-17T01:05:13.954Z,100.00
2022-10-17T01:07:43.430Z,100.00
2022-10-17T01:10:12.234Z,100.00
2022-10-17T01:12:56.045Z,100.00
2022-10-17T01:15:37.506Z,100.00
2022-10-17T01:18:14.124Z,100.00
2022-10-17T01:21:02.781Z,100.00
2022-10-17T01:23:54.428Z,100.00
2022-10-17T01:26:31.838Z,100.00
2022-10-17T01:29:30.463Z,100.00
2022-10-17T01:32:03.324Z,100.00
2022-10-17T01:34:35.969Z,100.00
2022-10-17T01:37:06.698Z,100.00
2022-10-17T01:39:45.467Z,100.00
2022-10-17T01:42:20.589Z,100.00
2022-10-17T01:44:55.508Z,100.00
2022-10-17T01:47:27.887Z,100.00
2022-10-17T01:50:00.478Z,100.00
2022-10-17T01:52:28.903Z,100.00
2022-10-17T01:54:59.744Z,100.00
2022-10-17T01:57:33.049Z,100.00
2022-10-17T02:00:03.433Z,100.00
2022-10-17T02:02:33.062Z,100.00
2022-10-17T02:05:03.707Z,100.00
2022-10-17T02:07:31.452Z,100.00
2022-10-17T02:09:59.141Z,100.00
2022-10-17T02:12:39.400Z,100.00
2022-10-17T02:15:24.074Z,100.00
2022-10-17T02:18:02.149Z,100.00
2022-10-17T02:20:34.089Z,100.00
2022-10-17T02:23:10.432Z,100.00
2022-10-17T02:25:46.051Z,100.00
2022-10-17T02:28:21.721Z,100.00
2022-10-17T02:30:55.983Z,100.00
2022-10-17T02:33:30.265Z,100.00
2022-10-17T02:36:02.993Z,100.00
2022-10-17T02:38:32.746Z,100.00
2022-10-17T02:41:01.494Z,100.00
2022-10-17T02:43:29.745Z,100.00
2022-10-17T02:45:58.140Z,100.00
2022-10-17T02:48:33.413Z,100.00
2022-10-17T02:51:08.459Z,100.00
2022-10-17T02:53:40.859Z,100.00
2022-10-17T02:56:15.011Z,100.00
2022-10-17T02:58:47.463Z,100.00
2022-10-17T03:01:15.048Z,100.00
2022-10-17T03:03:44.266Z,100.00
2022-10-17T03:06:11.998Z,100.00
2022-10-17T03:08:39.662Z,100.00
2022-10-17T03:11:07.646Z,100.00
2022-10-17T03:13:38.913Z,100.00
2022-10-17T03:16:07.827Z,100.00
2022-10-17T03:18:35.471Z,100.00
2022-10-17T03:21:04.492Z,100.00
2022-10-17T03:23:32.110Z,100.00
2022-10-17T03:25:59.707Z,100.00
2022-10-17T03:28:27.842Z,100.00
2022-10-17T03:30:55.502Z,100.00
2022-10-17T03:33:23.190Z,100.00
2022-10-17T03:35:50.993Z,100.00
2022-10-17T03:38:23.334Z,100.00
2022-10-17T03:40:56.278Z,100.00
2022-10-17T03:43:23.919Z,100.00
2022-10-17T03:45:51.575Z,100.00
2022-10-17T03:48:19.243Z,100.00
2022-10-17T03:50:46.862Z,100.00
2022-10-17T03:53:14.519Z,100.00
2022-10-17T03:55:43.517Z,100.00
2022-10-17T03:58:11.155Z,100.00
2022-10-17T04:00:38.922Z,100.00
2022-10-17T04:03:06.582Z,100.00
2022-10-17T04:05:34.199Z,100.00
2022-10-17T04:08:04.656Z,100.00
2022-10-17T04:10:32.702Z,100.00
2022-10-17T04:13:01.695Z,100.00
2022-10-17T04:15:29.342Z,100.00
2022-10-17T04:17:56.982Z,100.00
2022-10-17T04:20:24.666Z,100.00
2022-10-17T04:22:52.272Z,100.00
2022-10-17T04:25:19.966Z,100.00
2022-10-17T04:27:48.982Z,100.00
2022-10-17T04:30:18.274Z,100.00
2022-10-17T04:32:45.943Z,100.00
2022-10-17T04:35:13.631Z,100.00
2022-10-17T04:37:41.237Z,100.00
2022-10-17T04:40:10.320Z,100.00
2022-10-17T04:42:37.985Z,100.00
2022-10-17T04:45:06.610Z,100.00
2022-10-17T04:47:35.662Z,100.00
2022-10-17T04:50:04.162Z,100.00
2022-10-17T04:52:32.338Z,100.00
2022-10-17T04:55:00.144Z,100.00
2022-10-17T04:57:27.767Z,100.00
2022-10-17T04:59:55.471Z,100.00
2022-10-17T05:02:23.271Z,100.00
2022-10-17T05:04:52.255Z,100.00
2022-10-17T05:07:19.944Z,100.00
2022-10-17T05:09:47.569Z,100.00
2022-10-17T05:12:15.188Z,100.00
2022-10-17T05:14:42.799Z,100.00
2022-10-17T05:17:10.411Z,100.00
2022-10-17T05:19:38.042Z,100.00
2022-10-17T05:22:07.555Z,100.00
2022-10-17T05:24:35.236Z,100.00
2022-10-17T05:27:02.848Z,99.75
2022-10-17T05:29:30.521Z,99.82
2022-10-17T05:31:58.214Z,99.90
2022-10-17T05:34:26.063Z,99.63
2022-10-17T05:36:53.689Z,99.60
2022-10-17T05:39:23.357Z,99.24
2022-10-17T05:41:52.366Z,99.43
2022-10-17T05:44:20.034Z,99.31
2022-10-17T05:46:49.543Z,99.02
2022-10-17T05:49:32.207Z,99.18
2022-10-17T05:52:00.953Z,98.88
2022-10-17T05:54:29.973Z,98.83
2022-10-17T05:56:57.919Z,98.67
2022-10-17T05:59:26.428Z,98.60
2022-10-17T06:01:54.261Z,98.48
2022-10-17T06:04:22.197Z,98.41
2022-10-17T06:06:50.237Z,98.47
2022-10-17T06:09:17.999Z,98.27
2022-10-17T06:11:47.027Z,98.14
2022-10-17T06:14:14.750Z,98.16
2022-10-17T06:16:43.387Z,98.04
2022-10-17T06:19:11.858Z,97.97
2022-10-17T06:21:39.583Z,97.85
2022-10-17T06:24:07.345Z,97.75
2022-10-17T06:26:34.976Z,97.89
2022-10-17T06:29:04.424Z,97.69
2022-10-17T06:31:32.133Z,97.67
2022-10-17T06:33:59.839Z,97.46
2022-10-17T06:36:27.452Z,97.39
2022-10-17T06:38:55.170Z,97.23
2022-10-17T06:41:22.764Z,96.90
2022-10-17T06:43:50.790Z,96.89
2022-10-17T06:46:20.354Z,96.71
2022-10-17T06:48:48.143Z,96.51
2022-10-17T06:51:15.780Z,96.50
2022-10-17T06:53:43.446Z,96.27
2022-10-17T06:56:11.803Z,95.92
2022-10-17T06:58:40.695Z,95.95
2022-10-17T07:01:09.966Z,95.49
2022-10-17T07:03:40.129Z,95.28
2022-10-17T07:06:08.435Z,95.18
2022-10-17T07:08:36.078Z,94.85
2022-10-17T07:11:10.802Z,94.80
2022-10-17T07:13:39.376Z,94.73
2022-10-17T07:16:07.948Z,94.36
2022-10-17T07:18:35.859Z,94.12
2022-10-17T07:21:05.704Z,93.89
2022-10-17T07:23:36.490Z,93.63
2022-10-17T07:26:07.183Z,93.69
2022-10-17T07:28:35.243Z,93.41
2022-10-17T07:31:07.017Z,93.03
2022-10-17T07:33:35.077Z,92.94
2022-10-17T07:36:05.588Z,92.25
2022-10-17T07:38:33.290Z,92.12
2022-10-17T07:41:02.963Z,91.56
2022-10-17T07:43:31.562Z,91.25
2022-10-17T07:45:59.956Z,90.84
2022-10-17T07:48:27.735Z,90.57
2022-10-17T07:50:55.354Z,90.19
2022-10-17T07:53:24.483Z,89.90
2022-10-17T07:55:52.148Z,89.97
2022-10-17T07:58:19.972Z,89.70
2022-10-17T08:00:49.052Z,89.42
2022-10-17T08:03:16.782Z,89.40
2022-10-17T08:05:44.404Z,88.69
2022-10-17T08:08:12.016Z,88.12
2022-10-17T08:10:41.159Z,87.63
2022-10-17T08:13:09.230Z,87.38
2022-10-17T08:15:38.507Z,86.66
2022-10-17T08:18:06.198Z,86.09
2022-10-17T08:20:33.866Z,85.79
2022-10-17T08:23:01.657Z,85.51
2022-10-17T08:25:29.493Z,84.63
2022-10-17T08:27:59.118Z,84.34
2022-10-17T08:30:26.946Z,83.94
2022-10-17T08:32:55.997Z,83.43
2022-10-17T08:35:23.798Z,82.44
2022-10-17T08:37:51.447Z,82.12
2022-10-17T08:40:23.387Z,81.33
2022-10-17T08:43:07.160Z,81.61
2022-10-17T08:45:38.906Z,81.60
2022-10-17T08:48:12.050Z,81.60
2022-10-17T08:50:43.872Z,81.10
2022-10-17T08:53:19.909Z,80.85
2022-10-17T08:55:49.456Z,80.13
2022-10-17T08:58:21.083Z,80.03
2022-10-17T09:00:54.210Z,79.73
2022-10-17T09:03:39.682Z,80.13
2022-10-17T09:06:15.996Z,80.11
2022-10-17T09:08:52.851Z,79.82
2022-10-17T09:11:43.439Z,79.16
2022-10-17T09:14:29.991Z,78.99
2022-10-17T09:17:09.726Z,78.46
2022-10-17T09:19:40.447Z,77.56
2022-10-17T09:22:12.845Z,77.44
2022-10-17T09:24:43.514Z,77.21
2022-10-17T09:27:19.969Z,77.35
2022-10-17T09:29:52.060Z,76.91
2022-10-17T09:32:23.835Z,76.77
2022-10-17T09:35:00.214Z,77.07
2022-10-17T09:37:34.024Z,76.38
2022-10-17T09:40:01.748Z,76.50
2022-10-17T09:42:30.088Z,76.58
2022-10-17T09:45:19.248Z,76.78
2022-10-17T09:47:53.402Z,76.80
2022-10-17T09:50:28.319Z,77.08
2022-10-17T09:52:58.428Z,76.71
2022-10-17T09:55:35.646Z,77.01
2022-10-17T09:58:05.890Z,77.22
2022-10-17T10:00:37.985Z,77.46
2022-10-17T10:03:18.604Z,77.56
2022-10-17T10:06:00.909Z,77.87
2022-10-17T10:08:31.177Z,78.25
2022-10-17T10:11:03.243Z,78.36
2022-10-17T10:13:32.402Z,78.17
2022-10-17T10:16:18.124Z,78.19
2022-10-17T10:18:48.664Z,78.45
2022-10-17T10:21:20.750Z,78.77
2022-10-17T10:24:04.828Z,78.44
2022-10-17T10:26:37.198Z,78.62
2022-10-17T10:29:06.494Z,78.91
2022-10-17T10:31:39.152Z,79.46
2022-10-17T10:34:19.916Z,79.15
2022-10-17T10:36:54.619Z,79.34
2022-10-17T10:39:33.607Z,79.56
2022-10-17T10:42:02.451Z,79.07
2022-10-17T10:44:32.869Z,79.28
2022-10-17T10:47:20.616Z,79.11
2022-10-17T10:49:48.946Z,78.87
2022-10-17T10:52:31.087Z,78.60
2022-10-17T10:55:08.101Z,78.58
2022-10-17T10:57:39.069Z,78.59
2022-10-17T11:00:15.839Z,78.57
2022-10-17T11:02:52.920Z,78.81
2022-10-17T11:05:25.679Z,79.24
2022-10-17T11:08:01.028Z,79.94
2022-10-17T11:10:37.985Z,80.34
2022-10-17T11:13:11.977Z,80.65
2022-10-17T11:15:46.914Z,80.85
2022-10-17T11:18:25.406Z,81.62
2022-10-17T11:20:58.174Z,81.89
2022-10-17T11:23:31.479Z,83.08
2022-10-17T11:26:06.697Z,83.84
2022-10-17T11:28:34.512Z,83.79
2022-10-17T11:31:07.235Z,84.56
2022-10-17T11:33:47.250Z,84.81
2022-10-17T11:36:18.000Z,85.22
2022-10-17T11:38:50.023Z,85.92
2022-10-17T11:41:23.179Z,85.86
2022-10-17T11:43:56.125Z,86.63
2022-10-17T11:46:25.177Z,86.99
2022-10-17T11:49:05.193Z,86.54
2022-10-17T11:54:35.021Z,85.55
2022-10-17T11:57:18.446Z,84.45
2022-10-17T12:00:35.821Z,84.26
2022-10-17T12:03:18.867Z,84.55
2022-10-17T12:05:53.668Z,84.23
2022-10-17T12:08:29.133Z,83.90
2022-10-17T12:11:05.077Z,83.81
2022-10-17T12:13:51.553Z,83.16
2022-10-17T12:16:46.096Z,83.30
2022-10-17T12:19:26.503Z,83.32
2022-10-17T12:22:01.573Z,83.77
2022-10-17T12:24:36.168Z,84.23
2022-10-17T12:27:23.324Z,84.62
2022-10-17T12:29:51.579Z,84.15
2022-10-17T12:32:19.327Z,83.60
2022-10-17T12:34:54.011Z,83.31
2022-10-17T12:37:58.653Z,82.57
2022-10-17T12:40:53.466Z,82.60
2022-10-17T12:46:44.929Z,82.03
2022-10-17T12:49:31.334Z,81.62
2022-10-17T12:52:23.919Z,81.63
2022-10-17T12:55:13.920Z,81.31
2022-10-17T12:57:50.273Z,81.47
2022-10-17T13:00:23.000Z,81.74
2022-10-17T13:02:56.851Z,81.24
2022-10-17T13:05:30.386Z,81.03
2022-10-17T13:08:00.364Z,80.69
2022-10-17T13:10:30.920Z,81.01
2022-10-17T13:13:07.719Z,80.89
2022-10-17T13:15:37.355Z,80.76
2022-10-17T13:18:05.800Z,80.25
2022-10-17T13:20:33.918Z,80.19
2022-10-17T13:23:02.006Z,80.38
2022-10-17T13:25:29.996Z,81.01
2022-10-17T13:28:14.633Z,81.12
2022-10-17T13:30:49.628Z,81.48
2022-10-17T13:33:30.049Z,81.12
2022-10-17T13:36:01.327Z,81.49
2022-10-17T13:38:32.501Z,81.93
2022-10-17T13:41:16.581Z,82.09
2022-10-17T13:43:51.456Z,82.49
2022-10-17T13:46:39.251Z,82.69
2022-10-17T13:49:16.606Z,83.07
2022-10-17T13:51:46.375Z,83.05
2022-10-17T13:54:33.842Z,83.29
2022-10-17T13:57:02.882Z,83.53
2022-10-17T13:59:37.962Z,83.19
2022-10-17T14:02:12.438Z,83.02
2022-10-17T14:05:04.124Z,82.97
2022-10-17T14:07:58.115Z,82.67
2022-10-17T14:10:27.370Z,82.60
2022-10-17T14:12:56.404Z,82.47
2022-10-17T14:15:28.040Z,82.29
2022-10-17T14:17:59.098Z,82.10
2022-10-17T14:23:35.457Z,82.44
2022-10-17T14:26:09.288Z,81.99
2022-10-17T14:28:37.357Z,82.29
2022-10-17T14:31:25.448Z,82.69
2022-10-17T14:33:54.743Z,82.49
2022-10-17T14:36:32.735Z,82.21
2022-10-17T14:39:01.915Z,82.40
2022-10-17T14:41:48.597Z,82.09
2022-10-17T14:44:22.446Z,82.38
2022-10-17T14:46:55.094Z,82.58
2022-10-17T14:49:29.035Z,82.36
2022-10-17T14:52:28.373Z,82.34
2022-10-17T14:54:57.837Z,82.29
2022-10-17T14:57:28.990Z,82.48
2022-10-17T14:59:57.581Z,82.58
2022-10-17T15:02:30.087Z,82.76
2022-10-17T15:04:58.398Z,83.39
2022-10-17T15:07:26.272Z,83.61
2022-10-17T15:09:54.867Z,83.79
2022-10-17T15:12:24.782Z,83.69
2022-10-17T15:14:52.866Z,83.74
2022-10-17T15:17:23.362Z,83.86
2022-10-17T15:19:52.422Z,84.40
2022-10-17T15:22:20.153Z,84.59
2022-10-17T15:24:48.009Z,84.47
2022-10-17T15:27:17.435Z,84.98
2022-10-17T15:29:45.746Z,85.10
2022-10-17T15:32:13.700Z,85.52
2022-10-17T15:34:41.664Z,85.94
2022-10-17T15:37:17.825Z,86.20
2022-10-17T15:39:47.971Z,86.35
2022-10-17T15:42:15.645Z,86.62
2022-10-17T15:44:44.473Z,86.82
2022-10-17T15:47:23.361Z,87.00
2022-10-17T15:49:51.313Z,86.98
2022-10-17T15:52:20.541Z,86.99
2022-10-17T15:54:48.338Z,87.27
2022-10-17T15:57:19.360Z,87.77
2022-10-17T15:59:48.007Z,88.19
2022-10-17T16:02:16.860Z,88.61
2022-10-17T16:04:45.378Z,88.72
2022-10-17T16:07:13.056Z,89.20
2022-10-17T16:09:42.119Z,89.47
2022-10-17T16:12:14.348Z,89.85
2022-10-17T16:14:42.145Z,90.02
2022-10-17T16:17:13.826Z,90.18
2022-10-17T16:19:41.601Z,90.58
2022-10-17T16:22:19.184Z,90.84
2022-10-17T16:24:48.266Z,91.35
2022-10-17T16:27:15.943Z,91.31
2022-10-17T16:29:43.667Z,91.36
2022-10-17T16:32:11.506Z,91.45
2022-10-17T16:34:39.167Z,91.51
2022-10-17T16:37:06.806Z,91.55
2022-10-17T16:39:37.500Z,91.66
2022-10-17T16:42:06.605Z,91.78
2022-10-17T16:44:34.324Z,91.74
2022-10-17T16:47:02.040Z,91.73
2022-10-17T16:49:29.719Z,91.63
2022-10-17T16:51:57.389Z,91.72
2022-10-17T16:54:25.050Z,91.95
2022-10-17T16:56:52.820Z,91.99
2022-10-17T16:59:22.109Z,91.91
2022-10-17T17:01:49.834Z,92.07
2022-10-17T17:04:17.713Z,92.13
2022-10-17T17:09:18.183Z,92.10
2022-10-17T17:11:45.837Z,92.06
2022-10-17T17:14:14.399Z,92.25
2022-10-17T17:16:44.240Z,92.37
2022-10-17T17:19:14.108Z,92.27
2022-10-17T17:21:47.537Z,92.22
2022-10-17T17:24:15.434Z,92.41
2022-10-17T17:26:43.183Z,92.40
2022-10-17T17:29:11.811Z,92.36
2022-10-17T17:31:39.757Z,92.58
2022-10-17T17:34:09.677Z,92.61
2022-10-17T17:36:39.266Z,92.63
2022-10-17T17:39:09.025Z,92.83
2022-10-17T17:41:36.801Z,92.86
2022-10-17T17:44:12.413Z,92.92
2022-10-17T17:46:43.624Z,92.97
2022-10-17T17:49:12.741Z,93.27
2022-10-17T17:51:41.478Z,93.47
2022-10-17T17:54:11.486Z,93.35
2022-10-17T17:56:39.784Z,93.42
2022-10-17T17:59:07.763Z,93.52
2022-10-17T18:01:38.803Z,93.44
2022-10-17T18:04:08.565Z,93.68
2022-10-17T18:06:38.814Z,93.43
2022-10-17T18:09:07.546Z,93.61
2022-10-17T18:11:36.446Z,93.45
2022-10-17T18:14:06.671Z,93.46
2022-10-17T18:16:36.227Z,93.39
2022-10-17T18:19:07.228Z,93.26
2022-10-17T18:21:40.771Z,93.29
2022-10-17T18:24:08.875Z,93.40
2022-10-17T18:26:36.953Z,93.41
2022-10-17T18:29:05.358Z,93.37
2022-10-17T18:31:45.545Z,93.17
2022-10-17T18:34:13.245Z,93.50
2022-10-17T18:36:42.376Z,93.54
2022-10-17T18:39:10.079Z,93.61
2022-10-17T18:41:38.082Z,93.62
2022-10-17T18:44:05.902Z,93.63
2022-10-17T18:46:40.388Z,93.55
2022-10-17T18:49:08.725Z,93.64
2022-10-17T18:51:39.293Z,93.83
2022-10-17T18:54:12.420Z,93.98
2022-10-17T18:56:40.628Z,94.14
2022-10-17T18:59:08.327Z,94.20
2022-10-17T19:01:36.115Z,94.15
2022-10-17T19:04:03.849Z,94.10
2022-10-17T19:06:33.276Z,94.27
2022-10-17T19:09:02.235Z,94.25
2022-10-17T19:11:32.998Z,94.27
2022-10-17T19:14:02.893Z,94.32
2022-10-17T19:16:32.386Z,94.39
2022-10-17T19:19:02.935Z,94.52
2022-10-17T19:21:30.656Z,94.45
2022-10-17T19:24:02.032Z,94.51
2022-10-17T19:26:34.899Z,94.64
2022-10-17T19:29:03.112Z,94.55
2022-10-17T19:31:32.485Z,94.73
2022-10-17T19:34:03.573Z,94.93
2022-10-17T19:36:33.922Z,94.87
2022-10-17T19:39:08.473Z,94.91
2022-10-17T19:41:37.570Z,94.97
2022-10-17T19:44:05.282Z,94.91
2022-10-17T19:46:34.477Z,95.08
2022-10-17T19:49:02.926Z,95.14
2022-10-17T19:51:31.408Z,95.21
2022-10-17T19:54:01.239Z,95.18
2022-10-17T19:56:30.659Z,95.07
2022-10-17T19:59:03.203Z,95.00
2022-10-17T20:01:34.307Z,94.72
2022-10-17T20:04:02.458Z,94.71
2022-10-17T20:06:30.260Z,94.42
2022-10-17T20:08:58.008Z,94.11
2022-10-17T20:11:27.558Z,93.72
2022-10-17T20:13:55.732Z,93.26
2022-10-17T20:16:27.130Z,93.02
2022-10-17T20:18:56.924Z,92.56
2022-10-17T20:21:27.254Z,92.38
2022-10-17T20:23:56.474Z,92.05
2022-10-17T20:26:37.022Z,91.89
2022-10-17T20:29:13.042Z,91.77
2022-10-17T20:31:44.085Z,91.33
2022-10-17T20:34:14.790Z,91.17
2022-10-17T20:36:42.823Z,90.71
2022-10-17T20:39:12.215Z,90.60
2022-10-17T20:41:39.945Z,90.26
2022-10-17T20:44:07.932Z,90.08
2022-10-17T20:46:38.311Z,90.21
2022-10-17T20:49:15.373Z,89.85
2022-10-17T20:51:43.176Z,89.66
2022-10-17T20:54:13.690Z,89.65
2022-10-17T20:56:41.450Z,89.81
2022-10-17T20:59:13.536Z,89.57
2022-10-17T21:01:41.330Z,89.54
2022-10-17T21:04:40.487Z,89.71
2022-10-17T21:06:58.492Z,89.56
2022-10-17T21:09:26.484Z,89.43
2022-10-17T21:11:55.638Z,89.56
2022-10-17T21:14:24.211Z,89.73
2022-10-17T21:16:53.124Z,89.83
2022-10-17T21:19:22.761Z,89.59
2022-10-17T21:21:51.126Z,89.74
2022-10-17T21:24:20.512Z,89.89
2022-10-17T21:26:50.030Z,90.00
2022-10-17T21:29:17.759Z,89.89
2022-10-17T21:31:46.147Z,90.06
2022-10-17T21:34:17.451Z,90.06
2022-10-17T21:36:46.796Z,90.19
2022-10-17T21:39:15.829Z,90.34
2022-10-17T21:41:44.500Z,90.34
2022-10-17T21:44:15.355Z,90.50
2022-10-17T21:46:43.461Z,90.46
2022-10-17T21:49:12.507Z,90.72
2022-10-17T21:51:41.193Z,90.54
2022-10-17T21:54:10.284Z,90.60
2022-10-17T21:56:38.278Z,90.70
2022-10-17T21:59:06.869Z,90.89
2022-10-17T22:01:36.904Z,90.93
2022-10-17T22:04:06.538Z,91.15
2022-10-17T22:06:40.197Z,91.21
2022-10-17T22:09:13.002Z,91.31
2022-10-17T22:11:41.174Z,91.14
2022-10-17T22:14:12.998Z,91.15
2022-10-17T22:16:40.696Z,91.50
2022-10-17T22:19:09.651Z,91.68
2022-10-17T22:21:37.832Z,91.61
2022-10-17T22:24:09.042Z,91.77
2022-10-17T22:26:39.128Z,91.59
2022-10-17T22:29:08.134Z,91.77
2022-10-17T22:31:36.483Z,91.71
2022-10-17T22:34:05.563Z,91.75
2022-10-17T22:36:34.014Z,91.77
2022-10-17T22:39:02.218Z,91.82
2022-10-17T22:41:30.097Z,91.74
2022-10-17T22:43:59.154Z,91.70
2022-10-17T22:46:27.266Z,91.89
2022-10-17T22:48:55.127Z,91.82
2022-10-17T22:53:51.704Z,91.88
2022-10-17T22:56:21.510Z,91.83
2022-10-17T22:58:49.464Z,91.65
2022-10-17T23:01:20.185Z,91.67
2022-10-17T23:03:48.162Z,91.68
2022-10-17T23:06:16.169Z,91.68
2022-10-17T23:08:44.339Z,91.83
2022-10-17T23:11:12.092Z,92.00
2022-10-17T23:13:40.817Z,91.96
2022-10-17T23:16:09.421Z,92.07
2022-10-17T23:18:39.427Z,92.13
2022-10-17T23:21:08.133Z,92.07
2022-10-17T23:23:35.948Z,92.16
2022-10-17T23:26:08.615Z,92.32
2022-10-17T23:28:36.463Z,92.46
2022-10-17T23:31:15.707Z,92.44
2022-10-17T23:33:46.439Z,92.52
2022-10-17T23:36:15.374Z,92.36
2022-10-17T23:38:44.834Z,92.48
2022-10-17T23:41:13.184Z,92.51
2022-10-17T23:43:41.365Z,92.54
2022-10-17T23:46:09.795Z,92.71
2022-10-17T23:48:38.690Z,92.54
2022-10-17T23:51:08.808Z,92.54
2022-10-17T23:53:36.929Z,92.81
2022-10-17T23:56:05.546Z,92.67
2022-10-17T23:58:33.274Z,92.79
